Other Surface Observations
Issued by NWS Missoula, MT

Home | Current Version | Previous Version | Text Only | Print | Product List | Glossary On
Versions: 1 2 3 4 5 6 7 8 9 10 11 12 13 14 15 16 17 18 19 20 21 22 23 24 25 26 27 28 29 30 31 32 33 34 35 36 37 38 39 40 41 42 43 44 45 46 47 48 49 50
858
SXUS55 KMSO 071113
OSOMSO
MONTANA AWOS SUMMARY
NATIONAL WEATHER SERVICE MISSOULA MT
412 AM MST WED DEC 7 2016

Montana AWOS Reports

LAUREL      |K6S8 071055Z AUTO 00000KT 40SM M16/M22 A3024 RMK AO1 T11551216
TWIN BRIDGES|K7S1 071055Z AUTO 16011KT 070V250 25SM M17/M23 A3012 RMK AO1 T11661227
PLAINS      |KS34 071055Z AUTO 01006KT 40SM M09/M18 A3032 RMK AO1 T10881177
ROUNDUP     |KRPX 071055Z AUTO 11004KT 40SM M17/M23 A3019 RMK AO1 T11711232




USA.gov is the U.S. government's official web portal to all federal, state and local government web resources and services.